createdAt,value
2022-10-04T00:05:52.538Z,100560.25
2022-10-04T00:15:58.725Z,100569.75
2022-10-04T00:26:07.888Z,100567.09
2022-10-04T00:36:24.776Z,100561.00
2022-10-04T00:46:30.455Z,100538.59
2022-10-04T00:56:52.131Z,100532.66
2022-10-04T01:06:54.582Z,100543.00
2022-10-04T01:16:57.457Z,100530.97
2022-10-04T01:27:01.005Z,100524.97
2022-10-04T01:37:02.833Z,100524.06
2022-10-04T01:47:14.221Z,100513.72
2022-10-04T01:57:26.901Z,100518.00
2022-10-04T02:07:32.850Z,100522.28
2022-10-04T02:17:43.697Z,100524.84
2022-10-04T02:27:46.800Z,100530.88
2022-10-04T02:37:55.329Z,100543.81
2022-10-04T02:48:19.537Z,100524.03
2022-10-04T02:58:25.581Z,100527.44
2022-10-04T03:08:30.186Z,100525.69
2022-10-04T03:18:33.018Z,100521.34
2022-10-04T03:28:37.283Z,100508.47
2022-10-04T03:38:40.293Z,100516.19
2022-10-04T03:48:46.882Z,100513.69
2022-10-04T03:58:50.845Z,100511.06
2022-10-04T04:09:39.574Z,100523.13
2022-10-04T04:19:42.498Z,100527.38
2022-10-04T04:29:53.547Z,100527.38
2022-10-04T04:39:56.012Z,100523.09
2022-10-04T04:50:04.339Z,100532.69
2022-10-04T05:00:06.730Z,100547.38
2022-10-04T05:10:30.589Z,100541.34
2022-10-04T05:20:34.875Z,100557.69
2022-10-04T05:30:50.430Z,100551.59
2022-10-04T05:41:01.360Z,100569.56
2022-10-04T05:51:23.191Z,100572.06
2022-10-04T06:01:47.312Z,100569.38
2022-10-04T06:11:51.949Z,100581.38
2022-10-04T06:22:15.607Z,100595.09
2022-10-04T06:32:26.686Z,100611.47
2022-10-04T06:42:48.471Z,100607.97
2022-10-04T06:53:38.517Z,100638.84
2022-10-04T07:04:01.041Z,100637.78
2022-10-04T07:14:06.226Z,100653.53
2022-10-04T07:24:18.379Z,100650.63
2022-10-04T07:34:27.229Z,100664.72
2022-10-04T07:44:35.342Z,100664.69
2022-10-04T07:54:59.161Z,100672.78
2022-10-04T08:05:13.345Z,100674.94
2022-10-04T08:15:24.979Z,100699.78
2022-10-04T08:25:34.232Z,100700.41
2022-10-04T08:35:40.380Z,100717.72
2022-10-04T08:46:00.917Z,100708.56
2022-10-04T08:56:24.352Z,100702.72
2022-10-04T09:06:58.805Z,100702.19
2022-10-04T09:17:22.887Z,100682.75
2022-10-04T09:27:54.713Z,100707.28
2022-10-04T09:38:23.543Z,100711.53
2022-10-04T09:48:43.545Z,100721.41
2022-10-04T09:59:18.696Z,100727.59
2022-10-04T10:10:04.900Z,100733.53
2022-10-04T10:21:05.340Z,100736.13
2022-10-04T10:31:54.569Z,100743.75
2022-10-04T10:42:17.923Z,100731.47
2022-10-04T10:52:46.864Z,100719.16
2022-10-04T11:03:12.188Z,100728.25
2022-10-04T11:13:21.471Z,100731.31
2022-10-04T11:23:49.256Z,100733.47
2022-10-04T11:34:18.533Z,100746.22
2022-10-04T11:44:41.260Z,100742.09
2022-10-04T11:55:01.796Z,100737.41
2022-10-04T12:05:23.789Z,100743.50
2022-10-04T12:15:41.126Z,100732.22
2022-10-04T12:25:48.709Z,100735.53
2022-10-04T12:36:25.201Z,100741.44
2022-10-04T12:46:53.476Z,100745.34
2022-10-04T12:57:35.768Z,100755.25
2022-10-04T13:07:43.558Z,100739.97
2022-10-04T13:18:33.177Z,100733.00
2022-10-04T13:28:49.327Z,100741.13
2022-10-04T13:39:07.566Z,100739.78
2022-10-04T13:49:37.739Z,100753.31
2022-10-04T13:59:54.367Z,100772.88
2022-10-04T14:10:11.403Z,100780.25
2022-10-04T14:20:31.348Z,100782.16
2022-10-04T14:31:01.967Z,100777.50
2022-10-04T14:41:35.512Z,100783.34
2022-10-04T14:51:40.068Z,100801.34
2022-10-04T15:02:01.605Z,100821.91
2022-10-04T15:12:46.006Z,100815.59
2022-10-04T15:22:55.998Z,100819.28
2022-10-04T15:33:34.890Z,100831.84
2022-10-04T15:43:45.080Z,100842.03
2022-10-04T15:54:12.711Z,100853.91
2022-10-04T16:04:18.248Z,100868.66
2022-10-04T16:14:26.219Z,100879.84
2022-10-04T16:24:52.434Z,100892.41
2022-10-04T16:35:04.423Z,100891.91
2022-10-04T16:45:05.949Z,100901.50
2022-10-04T16:55:23.487Z,100902.47
2022-10-04T17:05:44.538Z,100926.88
2022-10-04T17:16:33.926Z,100940.97
2022-10-04T17:26:48.632Z,100951.50
2022-10-04T17:36:56.377Z,100960.16
2022-10-04T17:47:14.317Z,100967.06
2022-10-04T17:57:26.235Z,100975.69
2022-10-04T18:07:43.860Z,100976.59
2022-10-04T18:17:49.380Z,100980.00
2022-10-04T18:28:14.757Z,100988.56
2022-10-04T18:38:28.724Z,101002.31
2022-10-04T18:48:40.760Z,101011.69
2022-10-04T18:59:21.063Z,101034.88
2022-10-04T19:09:57.218Z,101038.16
2022-10-04T19:20:18.953Z,101048.34
2022-10-04T19:30:54.282Z,101045.59
2022-10-04T19:41:22.896Z,101060.84
2022-10-04T19:51:37.176Z,101081.34
2022-10-04T20:01:41.241Z,101083.78
2022-10-04T20:11:49.784Z,101087.13
2022-10-04T20:21:54.570Z,101097.25
2022-10-04T20:31:56.303Z,101110.84
2022-10-04T20:42:20.219Z,101109.81
2022-10-04T20:52:33.273Z,101120.03
2022-10-04T21:02:37.118Z,101119.97
2022-10-04T21:12:40.615Z,101124.09
2022-10-04T21:22:42.728Z,101126.31
2022-10-04T21:32:45.892Z,101136.34
2022-10-04T21:42:47.556Z,101144.69
2022-10-04T21:52:49.178Z,101153.19
2022-10-04T22:02:50.771Z,101158.09
2022-10-04T22:12:56.824Z,101158.84
2022-10-04T22:22:59.246Z,101165.56
2022-10-04T22:33:40.789Z,101175.59
2022-10-04T22:43:43.110Z,101180.59
2022-10-04T22:53:46.885Z,101189.78
2022-10-04T23:03:49.296Z,101183.56
2022-10-04T23:13:53.656Z,101195.22
2022-10-04T23:23:55.410Z,101193.06
2022-10-04T23:33:58.078Z,101205.72
2022-10-04T23:44:03.483Z,101221.81
2022-10-04T23:54:06.290Z,101224.91
